createdAt,value
2023-02-09T09:31:49.277Z,4.35
2023-02-09T09:34:15.810Z,5.47
2023-02-09T10:12:48.523Z,5.60
2023-02-09T10:15:27.801Z,7.78
2023-02-09T10:17:55.957Z,7.15
2023-02-09T10:20:43.278Z,7.85
2023-02-09T10:23:22.332Z,4.30
2023-02-09T10:25:54.952Z,5.60
2023-02-09T10:28:24.894Z,8.73
2023-02-09T10:30:54.495Z,7.10
2023-02-09T10:33:21.320Z,6.80
2023-02-09T10:35:53.017Z,7.72
2023-02-09T10:38:22.441Z,5.75
2023-02-09T10:40:49.757Z,5.93
2023-02-09T10:43:36.607Z,7.45
2023-02-09T10:46:11.810Z,7.40
2023-02-09T10:48:43.827Z,3.90
2023-02-09T10:51:29.582Z,8.85
2023-02-09T10:53:57.895Z,11.05
2023-02-09T10:56:27.746Z,7.55
2023-02-09T10:59:02.537Z,6.53
2023-02-09T11:01:32.903Z,5.63
2023-02-09T11:04:02.998Z,6.75
2023-02-09T11:06:47.490Z,8.75
2023-02-09T11:09:18.235Z,6.68
2023-02-09T11:11:45.165Z,6.22
2023-02-09T11:14:15.260Z,7.72
2023-02-09T11:16:49.669Z,7.80
2023-02-09T11:19:35.095Z,9.68
2023-02-09T11:22:20.485Z,14.85
2023-02-09T11:24:56.170Z,8.70
2023-02-09T11:27:28.764Z,8.77
2023-02-09T11:30:43.187Z,6.38
2023-02-09T11:33:39.713Z,9.47
2023-02-09T11:36:28.244Z,9.70
2023-02-09T11:39:08.349Z,9.52
2023-02-09T11:42:02.322Z,11.18
2023-02-09T11:44:47.834Z,8.33
2023-02-09T11:47:20.920Z,9.30
2023-02-09T11:49:53.706Z,9.02
2023-02-09T11:52:47.529Z,7.25
2023-02-09T11:55:46.972Z,11.68
2023-02-09T11:58:32.308Z,8.43
2023-02-09T12:01:15.585Z,7.95
2023-02-09T12:03:55.067Z,8.10
2023-02-09T12:06:23.937Z,9.63
2023-02-09T12:09:16.329Z,11.80
2023-02-09T12:11:54.421Z,8.75
2023-02-09T12:14:30.650Z,10.25
2023-02-09T12:17:05.323Z,11.43
2023-02-09T12:19:37.817Z,14.52
2023-02-09T12:22:46.569Z,10.07
2023-02-09T12:25:17.743Z,13.15
2023-02-09T12:28:10.014Z,11.70
2023-02-09T12:30:40.520Z,11.50
2023-02-09T12:33:16.996Z,8.45
2023-02-09T12:35:44.113Z,23.63
2023-02-09T12:38:18.613Z,14.52
2023-02-09T12:41:01.973Z,10.93
2023-02-09T12:43:30.951Z,9.10
2023-02-09T12:46:20.145Z,12.05
2023-02-09T12:48:51.868Z,11.88
2023-02-09T12:51:50.078Z,8.68
2023-02-09T12:55:08.002Z,14.65
2023-02-09T12:57:51.463Z,15.80
2023-02-09T13:00:18.796Z,14.85
2023-02-09T13:02:56.535Z,12.05
2023-02-09T13:05:23.033Z,10.93
2023-02-09T13:08:06.915Z,12.68
2023-02-09T13:10:58.397Z,10.68
2023-02-09T13:13:44.149Z,13.93
2023-02-09T13:16:55.196Z,11.63
2023-02-09T13:19:24.826Z,9.80
2023-02-09T13:22:18.731Z,11.75
2023-02-09T13:24:59.100Z,15.10
2023-02-09T13:27:27.125Z,13.45
2023-02-09T13:29:56.451Z,9.55
2023-02-09T13:33:01.835Z,9.63
2023-02-09T13:35:34.413Z,12.02
2023-02-09T13:38:13.488Z,15.80
2023-02-09T13:40:46.543Z,12.40
2023-02-09T13:43:13.012Z,12.57
2023-02-09T13:45:48.497Z,18.00
2023-02-09T13:48:37.720Z,12.18
2023-02-09T13:51:15.864Z,16.10
2023-02-09T13:53:59.260Z,16.17
2023-02-09T13:56:27.554Z,13.02
2023-02-09T13:58:55.611Z,16.27
2023-02-09T14:01:29.934Z,13.60
2023-02-09T14:04:04.006Z,11.38
2023-02-09T14:06:39.660Z,11.38
2023-02-09T14:09:14.200Z,14.32
2023-02-09T14:12:01.879Z,12.55
2023-02-09T14:14:56.097Z,17.17
2023-02-09T14:17:27.410Z,13.30
2023-02-09T14:19:57.006Z,13.68
2023-02-09T14:22:42.654Z,12.38
2023-02-09T14:25:15.313Z,19.38
2023-02-09T14:27:46.880Z,14.00
2023-02-09T14:30:20.835Z,9.35
2023-02-09T14:32:52.325Z,12.25
2023-02-09T14:35:29.766Z,10.57
2023-02-09T14:37:58.944Z,15.23
2023-02-09T14:40:37.066Z,9.05
2023-02-09T14:43:22.172Z,11.77
2023-02-09T14:45:59.097Z,8.38
2023-02-09T14:48:27.043Z,10.43
2023-02-09T14:50:56.377Z,9.52
2023-02-09T14:53:26.640Z,9.77
2023-02-09T14:55:57.278Z,12.50
2023-02-09T14:58:29.595Z,10.60
2023-02-09T15:00:59.112Z,11.85
2023-02-09T15:03:26.688Z,9.57
2023-02-09T15:06:02.310Z,11.77
2023-02-09T15:08:31.172Z,10.13
2023-02-09T15:11:01.214Z,11.45
2023-02-09T15:13:30.367Z,10.52
2023-02-09T15:15:57.373Z,7.18
2023-02-09T15:18:27.463Z,12.52
2023-02-09T15:20:54.006Z,23.45
2023-02-09T15:23:20.657Z,20.20
2023-02-09T15:25:47.958Z,9.25
2023-02-09T15:28:24.584Z,9.25
2023-02-09T15:30:51.179Z,11.07
2023-02-09T15:33:18.000Z,11.32
2023-02-09T15:35:44.883Z,7.70
2023-02-09T15:38:13.763Z,11.25
2023-02-09T15:41:01.694Z,11.07
2023-02-09T15:43:47.465Z,8.02
2023-02-09T15:46:33.217Z,12.00
2023-02-09T15:49:00.209Z,8.95
2023-02-09T15:51:31.235Z,9.32
2023-02-09T15:54:00.658Z,9.70
2023-02-09T15:56:27.794Z,11.45
2023-02-09T15:58:54.594Z,7.78
2023-02-09T16:01:22.330Z,9.73
2023-02-09T16:03:49.130Z,12.60
2023-02-09T16:06:27.135Z,11.60
2023-02-09T16:08:55.922Z,14.75
2023-02-09T16:11:29.289Z,16.48
2023-02-09T16:13:55.897Z,10.35
2023-02-09T16:16:24.709Z,15.60
2023-02-09T16:18:51.759Z,11.95
2023-02-09T16:21:26.539Z,10.18
2023-02-09T16:23:55.936Z,12.45
2023-02-09T16:26:24.430Z,11.05
2023-02-09T16:28:51.864Z,12.80
2023-02-09T16:31:19.285Z,13.65
2023-02-09T16:33:46.657Z,12.13
2023-02-09T16:36:17.065Z,10.75
2023-02-09T16:38:44.037Z,13.68
2023-02-09T16:41:33.241Z,13.57
2023-02-09T16:44:01.091Z,11.07
2023-02-09T16:46:31.856Z,12.20
2023-02-09T16:49:00.707Z,13.00
2023-02-09T16:51:27.397Z,10.60
2023-02-09T16:53:53.967Z,13.40
2023-02-09T16:56:20.828Z,15.00
2023-02-09T16:58:49.582Z,10.30
2023-02-09T17:01:20.473Z,10.38
2023-02-09T17:03:49.632Z,10.32
2023-02-09T17:06:20.035Z,14.20
2023-02-09T17:08:47.778Z,8.95
2023-02-09T17:11:21.405Z,11.35
2023-02-09T17:13:48.837Z,16.02
2023-02-09T17:16:19.267Z,18.35
2023-02-09T17:18:47.444Z,11.95
2023-02-09T17:21:23.774Z,11.23
2023-02-09T17:23:51.224Z,11.30
2023-02-09T17:26:18.462Z,16.70
2023-02-09T17:28:45.203Z,16.30
2023-02-09T17:31:18.758Z,15.80
2023-02-09T17:33:48.538Z,16.00
2023-02-09T17:36:31.274Z,12.77
2023-02-09T17:39:00.655Z,18.08
2023-02-09T17:41:34.025Z,13.88
2023-02-09T17:44:28.905Z,17.80
2023-02-09T17:47:03.246Z,15.00
2023-02-09T17:49:29.772Z,13.05
2023-02-09T17:51:56.305Z,15.70
2023-02-09T17:54:22.810Z,10.68
2023-02-09T17:56:49.543Z,9.05
2023-02-09T17:59:19.545Z,15.77
2023-02-09T18:01:49.566Z,16.17
2023-02-09T18:04:22.837Z,14.63
2023-02-09T18:06:49.742Z,13.67
2023-02-09T18:09:16.379Z,15.90
2023-02-09T18:11:52.343Z,14.70
2023-02-09T18:14:20.370Z,18.90
2023-02-09T18:16:47.774Z,11.35
2023-02-09T18:19:16.058Z,12.60
2023-02-09T18:21:49.595Z,16.90
2023-02-09T18:24:17.180Z,12.63
2023-02-09T18:26:43.900Z,14.35
2023-02-09T18:29:10.516Z,12.23
2023-02-09T18:31:37.806Z,11.48
2023-02-09T18:34:04.511Z,15.25
2023-02-09T18:36:32.703Z,13.32
2023-02-09T18:38:59.650Z,13.98
2023-02-09T18:41:26.661Z,11.75
2023-02-09T18:43:54.416Z,11.82
2023-02-09T18:46:24.410Z,11.38
2023-02-09T18:48:51.417Z,13.73
2023-02-09T18:51:18.070Z,16.98
2023-02-09T18:53:44.590Z,17.10
2023-02-09T18:56:17.708Z,12.98
2023-02-09T18:58:44.401Z,11.20
2023-02-09T19:01:14.181Z,12.18
2023-02-09T19:03:41.025Z,15.85
2023-02-09T19:06:11.888Z,14.25
2023-02-09T19:08:39.614Z,17.00
2023-02-09T19:11:07.145Z,14.98
2023-02-09T19:13:34.011Z,18.40
2023-02-09T19:16:00.861Z,15.27
2023-02-09T19:18:27.586Z,16.23
2023-02-09T19:20:55.725Z,13.82
2023-02-09T19:23:24.283Z,20.38
2023-02-09T19:26:01.556Z,18.98
2023-02-09T19:28:28.328Z,24.35
2023-02-09T19:30:54.909Z,21.17
2023-02-09T19:33:23.410Z,25.52
2023-02-09T19:36:00.075Z,18.70
2023-02-09T19:38:27.145Z,19.20
2023-02-09T19:41:09.755Z,18.63
2023-02-09T19:43:36.956Z,24.77
2023-02-09T19:46:04.523Z,26.13
2023-02-09T19:48:31.822Z,24.15
2023-02-09T19:50:58.970Z,16.73
2023-02-09T19:53:26.708Z,10.85
2023-02-09T19:55:54.266Z,19.05
2023-02-09T19:58:24.230Z,15.50
2023-02-09T20:00:51.855Z,13.23
2023-02-09T20:03:18.903Z,14.57
2023-02-09T20:05:46.235Z,23.30
2023-02-09T20:08:16.475Z,18.70
2023-02-09T20:10:44.264Z,14.52
2023-02-09T20:13:14.445Z,13.18
2023-02-09T20:15:43.375Z,17.25
2023-02-09T20:18:10.872Z,17.63
2023-02-09T20:20:41.863Z,13.27
2023-02-09T20:23:09.204Z,12.80
2023-02-09T20:25:35.834Z,21.90
2023-02-09T20:28:02.548Z,14.75
2023-02-09T20:30:29.263Z,15.07
2023-02-09T20:32:55.939Z,14.77
2023-02-09T20:35:22.570Z,15.80
2023-02-09T20:37:49.393Z,17.10
2023-02-09T20:40:16.139Z,16.77
2023-02-09T20:43:01.439Z,16.52
2023-02-09T20:45:46.816Z,23.50
2023-02-09T20:48:14.019Z,12.07
2023-02-09T20:50:40.542Z,18.77
2023-02-09T20:53:07.368Z,25.65
2023-02-09T20:55:34.057Z,20.25
2023-02-09T20:58:00.639Z,16.25
2023-02-09T21:00:27.682Z,11.57
2023-02-09T21:02:54.407Z,16.27
2023-02-09T21:05:20.957Z,19.00
2023-02-09T21:07:50.483Z,17.98
2023-02-09T21:10:17.176Z,14.85
2023-02-09T21:12:43.789Z,19.48
2023-02-09T21:15:10.300Z,18.17
2023-02-09T21:17:36.894Z,16.90
2023-02-09T21:20:03.826Z,15.40
2023-02-09T21:22:30.489Z,18.38
2023-02-09T21:24:57.134Z,19.05
2023-02-09T21:27:26.047Z,16.48
2023-02-09T21:29:52.595Z,19.58
2023-02-09T21:32:19.123Z,17.63
2023-02-09T21:34:45.654Z,19.63
2023-02-09T21:37:14.038Z,15.45
2023-02-09T21:39:40.798Z,16.75
2023-02-09T21:42:28.650Z,16.15
2023-02-09T21:44:55.529Z,17.50
2023-02-09T21:47:40.380Z,18.65
2023-02-09T21:50:11.128Z,20.52
2023-02-09T21:52:37.743Z,19.10
2023-02-09T21:55:06.166Z,14.68
2023-02-09T21:57:32.694Z,26.95
2023-02-09T21:59:59.841Z,18.85
2023-02-09T22:02:27.398Z,18.10
2023-02-09T22:04:54.114Z,24.08
2023-02-09T22:07:20.722Z,20.05
2023-02-09T22:09:47.270Z,19.20
2023-02-09T22:12:13.906Z,19.77
2023-02-09T22:14:40.440Z,23.92
2023-02-09T22:17:07.027Z,17.02
2023-02-09T22:19:33.578Z,20.58
2023-02-09T22:22:01.523Z,22.52
2023-02-09T22:24:29.986Z,19.92
2023-02-09T22:26:56.573Z,26.63
2023-02-09T22:29:23.135Z,24.30
2023-02-09T22:31:49.706Z,20.88
2023-02-09T22:34:16.204Z,25.52
2023-02-09T22:36:42.766Z,22.02
2023-02-09T22:39:09.331Z,19.45
2023-02-09T22:41:36.452Z,24.92
2023-02-09T22:44:06.230Z,19.05
2023-02-09T22:46:36.018Z,30.75
2023-02-09T22:49:05.855Z,24.10
2023-02-09T22:51:33.867Z,24.90
2023-02-09T22:54:00.984Z,22.05
2023-02-09T22:56:29.050Z,20.33
2023-02-09T22:58:57.118Z,25.92
2023-02-09T23:01:24.052Z,17.20
2023-02-09T23:03:50.819Z,21.58
2023-02-09T23:06:20.304Z,28.73
2023-02-09T23:08:47.303Z,27.05
2023-02-09T23:11:16.571Z,22.38
2023-02-09T23:13:43.707Z,26.67
2023-02-09T23:16:19.818Z,24.70
2023-02-09T23:18:49.883Z,18.02
2023-02-09T23:21:17.543Z,19.35
2023-02-09T23:23:44.411Z,18.92
2023-02-09T23:26:11.758Z,19.98
2023-02-09T23:28:38.726Z,23.20
2023-02-09T23:31:12.003Z,22.52
2023-02-09T23:33:38.863Z,16.67
2023-02-09T23:36:10.193Z,31.40
2023-02-09T23:38:37.596Z,24.33
2023-02-09T23:41:08.667Z,23.50
2023-02-09T23:43:36.112Z,22.65
2023-02-09T23:46:04.651Z,23.00
2023-02-09T23:48:31.340Z,16.38
2023-02-09T23:51:09.555Z,30.90
2023-02-09T23:53:36.112Z,24.65
2023-02-09T23:56:03.886Z,21.13
2023-02-09T23:58:32.021Z,22.95
